createdAt,value
2019-03-29T00:00:54.030Z,5.73
2019-03-29T00:03:24.920Z,5.27
2019-03-29T00:05:55.886Z,5.73
2019-03-29T00:08:27.003Z,5.83
2019-03-29T00:11:02.434Z,5.93
2019-03-29T00:13:33.575Z,5.43
2019-03-29T00:16:04.530Z,5.40
2019-03-29T00:18:36.120Z,6.50
2019-03-29T00:21:07.271Z,6.67
2019-03-29T00:23:38.288Z,7.90
2019-03-29T00:26:09.148Z,7.90
2019-03-29T00:28:40.216Z,7.67
2019-03-29T00:31:13.952Z,7.37
2019-03-29T00:33:43.772Z,7.13
2019-03-29T00:36:14.706Z,6.90
2019-03-29T00:38:45.686Z,7.13
2019-03-29T00:41:16.608Z,6.93
2019-03-29T00:43:47.629Z,6.93
2019-03-29T00:46:18.565Z,7.03
2019-03-29T00:48:49.645Z,7.37
2019-03-29T00:51:20.646Z,7.23
2019-03-29T00:53:51.499Z,7.53
2019-03-29T00:56:22.509Z,7.53
2019-03-29T00:58:53.567Z,7.60
2019-03-29T01:01:26.029Z,8.00
2019-03-29T01:03:57.153Z,8.27
2019-03-29T01:06:28.420Z,7.67
2019-03-29T01:08:59.281Z,8.53
2019-03-29T01:11:30.525Z,7.90
2019-03-29T01:14:01.512Z,8.13
2019-03-29T01:16:32.537Z,9.17
2019-03-29T01:19:04.025Z,8.57
2019-03-29T01:21:35.068Z,8.50
2019-03-29T01:24:06.285Z,8.03
2019-03-29T01:26:37.183Z,8.70
2019-03-29T01:29:08.151Z,9.23
2019-03-29T01:31:40.975Z,9.50
2019-03-29T01:34:12.169Z,9.00
2019-03-29T01:36:43.219Z,9.30
2019-03-29T01:39:14.151Z,8.90
2019-03-29T01:41:45.077Z,9.10
2019-03-29T01:44:15.964Z,9.70
2019-03-29T01:46:46.949Z,9.97
2019-03-29T01:49:18.117Z,10.23
2019-03-29T01:51:49.132Z,10.37
2019-03-29T01:54:20.181Z,10.60
2019-03-29T01:56:51.181Z,9.50
2019-03-29T01:59:22.140Z,9.77
2019-03-29T02:01:53.309Z,9.60
2019-03-29T02:04:24.306Z,9.10
2019-03-29T02:06:55.388Z,9.60
2019-03-29T02:09:26.307Z,8.53
2019-03-29T02:11:57.362Z,8.67
2019-03-29T02:14:28.264Z,8.87
2019-03-29T02:16:59.224Z,8.83
2019-03-29T02:19:30.286Z,8.97
2019-03-29T02:22:01.341Z,8.93
2019-03-29T02:24:32.302Z,9.23
2019-03-29T02:27:03.256Z,9.07
2019-03-29T02:29:34.327Z,9.20
2019-03-29T02:32:05.390Z,9.90
2019-03-29T02:34:36.382Z,9.23
2019-03-29T02:37:07.450Z,9.93
2019-03-29T02:39:38.626Z,9.87
2019-03-29T02:42:09.590Z,10.90
2019-03-29T02:44:40.613Z,11.33
2019-03-29T02:47:11.716Z,11.03
2019-03-29T02:49:42.663Z,10.67
2019-03-29T02:52:13.767Z,10.40
2019-03-29T02:54:44.813Z,11.13
2019-03-29T02:57:16.064Z,10.70
2019-03-29T02:59:47.149Z,11.57
2019-03-29T03:02:18.119Z,11.27
2019-03-29T03:04:49.192Z,11.57
2019-03-29T03:07:20.122Z,10.97
2019-03-29T03:09:51.116Z,10.60
2019-03-29T03:12:22.282Z,10.40
2019-03-29T03:14:53.197Z,9.63
2019-03-29T03:17:24.157Z,9.57
2019-03-29T03:19:55.178Z,9.87
2019-03-29T03:22:26.223Z,9.13
2019-03-29T03:24:57.233Z,10.23
2019-03-29T03:27:28.268Z,9.80
2019-03-29T03:29:59.194Z,9.70
2019-03-29T03:32:30.191Z,9.23
2019-03-29T03:35:01.329Z,8.80
2019-03-29T03:37:32.293Z,8.50
2019-03-29T03:40:04.129Z,7.90
2019-03-29T03:42:35.133Z,8.40
2019-03-29T03:45:07.879Z,8.87
2019-03-29T03:47:39.956Z,8.40
2019-03-29T03:50:31.952Z,8.30
2019-03-29T03:53:02.992Z,9.60
2019-03-29T03:55:36.106Z,8.73
2019-03-29T03:58:07.874Z,8.80
2019-03-29T04:00:44.409Z,9.10
2019-03-29T04:03:15.559Z,8.27
2019-03-29T04:05:46.693Z,8.50
2019-03-29T04:08:21.316Z,9.73
2019-03-29T04:10:52.233Z,9.23
2019-03-29T04:13:23.352Z,9.40
2019-03-29T04:15:54.318Z,10.17
2019-03-29T04:18:25.265Z,11.03
2019-03-29T04:20:56.465Z,12.37
2019-03-29T04:23:27.507Z,12.20
2019-03-29T04:25:58.558Z,11.77
2019-03-29T04:28:29.492Z,11.53
2019-03-29T04:31:00.589Z,11.57
2019-03-29T04:33:31.520Z,11.80
2019-03-29T04:36:02.620Z,11.07
2019-03-29T04:38:33.592Z,11.37
2019-03-29T04:41:04.753Z,11.33
2019-03-29T04:43:35.869Z,11.93
2019-03-29T04:46:06.913Z,11.33
2019-03-29T04:48:37.917Z,10.47
2019-03-29T04:51:09.066Z,10.90
2019-03-29T04:53:40.112Z,10.33
2019-03-29T04:56:11.247Z,10.90
2019-03-29T04:58:42.215Z,10.33
2019-03-29T05:01:17.146Z,10.60
2019-03-29T05:03:46.241Z,10.57
2019-03-29T05:06:17.423Z,10.70
2019-03-29T05:08:48.467Z,10.70
2019-03-29T05:11:19.445Z,10.67
2019-03-29T05:13:50.583Z,11.57
2019-03-29T05:16:21.550Z,10.67
2019-03-29T05:18:52.470Z,11.30
2019-03-29T05:21:23.444Z,10.67
2019-03-29T05:23:54.443Z,11.37
2019-03-29T05:26:25.710Z,11.33
2019-03-29T05:28:56.834Z,12.30
2019-03-29T05:31:27.818Z,11.47
2019-03-29T05:33:58.780Z,11.77
2019-03-29T05:36:29.783Z,10.93
2019-03-29T05:39:00.767Z,11.27
2019-03-29T05:41:31.760Z,11.43
2019-03-29T05:44:04.321Z,11.97
2019-03-29T05:46:35.875Z,11.87
2019-03-29T05:49:06.863Z,10.07
2019-03-29T05:51:37.990Z,11.70
2019-03-29T05:54:09.092Z,11.63
2019-03-29T05:56:40.604Z,11.83
2019-03-29T05:59:13.186Z,11.47
2019-03-29T06:01:44.481Z,11.87
2019-03-29T06:04:18.097Z,11.20
2019-03-29T06:06:50.801Z,11.27
2019-03-29T06:09:21.859Z,11.13
2019-03-29T06:11:52.793Z,11.07
2019-03-29T06:14:23.938Z,11.27
2019-03-29T06:16:55.148Z,11.30
2019-03-29T06:19:26.293Z,10.83
2019-03-29T06:21:57.171Z,11.10
2019-03-29T06:24:28.161Z,11.27
2019-03-29T06:26:59.710Z,11.43
2019-03-29T06:29:30.707Z,12.30
2019-03-29T06:32:01.603Z,11.90
2019-03-29T06:34:32.541Z,11.70
2019-03-29T06:37:03.822Z,12.97
2019-03-29T06:39:34.895Z,12.30
2019-03-29T06:42:05.989Z,12.30
2019-03-29T06:44:36.991Z,12.50
2019-03-29T06:47:07.875Z,11.60
2019-03-29T06:49:38.857Z,12.63
2019-03-29T06:52:09.822Z,11.90
2019-03-29T06:54:40.964Z,12.27
2019-03-29T06:57:11.906Z,12.47
2019-03-29T06:59:42.790Z,12.17
2019-03-29T07:02:13.893Z,11.53
2019-03-29T07:04:44.723Z,11.90
2019-03-29T07:07:15.734Z,12.33
2019-03-29T07:09:46.705Z,11.03
2019-03-29T07:12:17.686Z,11.00
2019-03-29T07:14:48.627Z,11.17
2019-03-29T07:17:19.593Z,10.60
2019-03-29T07:19:50.889Z,10.07
2019-03-29T07:22:21.971Z,9.50
2019-03-29T07:24:53.299Z,10.40
2019-03-29T07:27:24.187Z,9.30
2019-03-29T07:29:55.209Z,9.77
2019-03-29T07:32:26.171Z,9.43
2019-03-29T07:34:57.321Z,9.93
2019-03-29T07:37:28.312Z,8.87
2019-03-29T07:39:59.172Z,8.43
2019-03-29T07:42:30.134Z,7.67
2019-03-29T07:45:01.037Z,8.80
2019-03-29T07:47:31.922Z,8.23
2019-03-29T07:50:02.937Z,7.70
2019-03-29T07:52:34.021Z,6.83
2019-03-29T07:55:06.922Z,7.53
2019-03-29T07:57:37.890Z,8.10
2019-03-29T08:00:09.337Z,6.53
2019-03-29T08:02:40.239Z,7.43
2019-03-29T08:05:11.310Z,7.33
2019-03-29T08:07:42.414Z,6.87
2019-03-29T08:10:24.039Z,6.80
2019-03-29T08:12:46.438Z,6.83
2019-03-29T08:15:17.378Z,5.90
2019-03-29T08:17:48.329Z,6.53
2019-03-29T08:20:43.912Z,6.10
2019-03-29T08:22:52.121Z,5.77
2019-03-29T08:25:23.402Z,6.17
2019-03-29T08:27:54.531Z,5.50
2019-03-29T08:30:25.483Z,5.50
2019-03-29T08:32:56.486Z,6.20
2019-03-29T08:35:27.452Z,6.23
2019-03-29T08:37:58.476Z,4.73
2019-03-29T08:40:29.550Z,3.80
2019-03-29T08:43:00.644Z,4.13
2019-03-29T08:45:31.618Z,4.30
2019-03-29T08:48:02.556Z,5.10
2019-03-29T08:50:33.625Z,5.20
2019-03-29T08:53:04.892Z,4.40
2019-03-29T08:55:45.758Z,4.57
2019-03-29T08:58:08.660Z,3.80
2019-03-29T09:00:39.702Z,3.90
2019-03-29T09:03:10.761Z,3.83
2019-03-29T09:05:42.117Z,4.27
2019-03-29T09:08:13.248Z,3.73
2019-03-29T09:10:44.330Z,3.50
2019-03-29T09:13:15.290Z,3.53
2019-03-29T09:15:46.352Z,3.70
2019-03-29T09:18:17.423Z,3.80
2019-03-29T09:20:48.554Z,4.27
2019-03-29T09:23:19.703Z,3.97
2019-03-29T09:25:50.740Z,3.97
2019-03-29T09:28:21.925Z,3.97
2019-03-29T09:30:56.222Z,3.83
2019-03-29T09:33:25.626Z,3.40
2019-03-29T09:35:56.648Z,2.93
2019-03-29T09:38:27.800Z,2.80
2019-03-29T09:40:59.372Z,2.63
2019-03-29T09:43:30.325Z,2.27
2019-03-29T09:46:03.319Z,3.43
2019-03-29T09:48:34.696Z,3.50
2019-03-29T09:51:06.070Z,3.10
2019-03-29T09:53:40.853Z,3.70
2019-03-29T09:56:10.022Z,3.87
2019-03-29T09:58:41.063Z,3.00
2019-03-29T10:01:12.068Z,2.97
2019-03-29T10:03:43.207Z,3.40
2019-03-29T10:06:15.411Z,3.20
2019-03-29T10:08:46.602Z,3.70
2019-03-29T10:11:17.455Z,3.07
2019-03-29T10:13:48.519Z,3.80
2019-03-29T10:16:19.578Z,3.20
2019-03-29T10:18:50.507Z,3.23
2019-03-29T10:21:21.663Z,3.20
2019-03-29T10:23:53.373Z,3.10
2019-03-29T10:26:24.332Z,2.67
2019-03-29T10:28:56.090Z,3.43
2019-03-29T10:31:32.400Z,3.63
2019-03-29T10:34:00.200Z,3.47
2019-03-29T10:36:31.159Z,3.50
2019-03-29T10:39:02.600Z,3.70
2019-03-29T10:41:34.463Z,3.90
2019-03-29T10:44:06.453Z,3.70
2019-03-29T10:46:37.467Z,3.63
2019-03-29T10:49:08.515Z,3.70
2019-03-29T10:51:39.663Z,4.57
2019-03-29T10:54:10.623Z,3.23
2019-03-29T10:56:41.815Z,3.80
2019-03-29T10:59:26.375Z,3.47
2019-03-29T11:01:45.507Z,3.20
2019-03-29T11:04:16.632Z,4.10
2019-03-29T11:06:47.671Z,4.20
2019-03-29T11:09:18.732Z,4.70
2019-03-29T11:11:49.734Z,4.50
2019-03-29T11:14:20.814Z,3.87
2019-03-29T11:16:51.806Z,3.80
2019-03-29T11:19:23.131Z,4.47
2019-03-29T11:21:54.368Z,3.83
2019-03-29T11:24:25.440Z,4.30
2019-03-29T11:26:56.496Z,3.60
2019-03-29T11:29:27.711Z,3.77
2019-03-29T11:31:58.678Z,4.10
2019-03-29T11:34:29.721Z,3.80
2019-03-29T11:37:00.938Z,5.50
2019-03-29T11:39:31.945Z,3.70
2019-03-29T11:42:03.582Z,3.83
2019-03-29T11:44:34.808Z,4.10
2019-03-29T11:47:06.262Z,3.57
2019-03-29T11:49:37.351Z,4.67
2019-03-29T11:52:08.543Z,3.70
2019-03-29T11:54:39.897Z,3.67
2019-03-29T11:57:10.825Z,4.17
2019-03-29T11:59:41.827Z,3.90
2019-03-29T12:02:12.796Z,3.40
2019-03-29T12:04:43.776Z,4.27
2019-03-29T12:07:14.814Z,3.57
2019-03-29T12:09:45.796Z,3.70
2019-03-29T12:12:16.670Z,3.50
2019-03-29T12:14:47.757Z,4.47
2019-03-29T12:17:18.822Z,3.73
2019-03-29T12:19:49.818Z,3.70
2019-03-29T12:22:20.854Z,4.37
2019-03-29T12:24:52.087Z,4.37
2019-03-29T12:27:23.323Z,3.90
2019-03-29T12:29:54.584Z,3.50
2019-03-29T12:32:25.723Z,3.30
2019-03-29T12:34:56.726Z,4.17
2019-03-29T12:37:28.345Z,4.03
2019-03-29T12:39:59.500Z,3.70
2019-03-29T12:42:33.945Z,3.60
2019-03-29T12:45:07.740Z,3.97
2019-03-29T12:47:38.689Z,3.83
2019-03-29T12:50:10.008Z,4.00
2019-03-29T12:52:41.022Z,3.67
2019-03-29T12:55:12.550Z,4.00
2019-03-29T12:57:44.018Z,4.13
2019-03-29T13:00:15.759Z,5.50
2019-03-29T13:02:46.842Z,3.90
2019-03-29T13:05:18.541Z,3.72
2019-03-29T13:07:52.907Z,4.10
2019-03-29T13:10:23.221Z,4.20
2019-03-29T13:12:54.299Z,3.93
2019-03-29T13:15:27.251Z,4.27
2019-03-29T13:17:58.317Z,4.70
2019-03-29T13:20:32.105Z,4.80
2019-03-29T13:23:03.171Z,4.20
2019-03-29T13:25:34.415Z,4.60
2019-03-29T13:28:05.602Z,4.10
2019-03-29T13:30:40.112Z,3.97
2019-03-29T13:33:13.295Z,4.10
2019-03-29T13:35:47.188Z,4.10
2019-03-29T13:38:20.441Z,4.10
2019-03-29T13:40:50.883Z,4.03
2019-03-29T13:43:21.906Z,4.47
2019-03-29T13:45:53.029Z,4.83
2019-03-29T13:48:24.125Z,3.87
2019-03-29T13:50:55.378Z,3.97
2019-03-29T13:53:26.421Z,6.83
2019-03-29T13:55:57.413Z,5.27
2019-03-29T13:58:28.403Z,4.20
2019-03-29T14:00:59.720Z,4.20
2019-03-29T14:03:31.449Z,6.47
2019-03-29T14:06:02.713Z,4.08
2019-03-29T14:08:33.833Z,6.45
2019-03-29T14:11:05.008Z,4.03
2019-03-29T14:13:36.216Z,4.30
2019-03-29T14:16:07.501Z,3.98
2019-03-29T14:18:38.676Z,4.00
2019-03-29T14:21:09.811Z,4.37
2019-03-29T14:23:40.951Z,4.20
2019-03-29T14:26:11.948Z,3.90
2019-03-29T14:28:43.017Z,4.10
2019-03-29T14:31:14.237Z,3.40
2019-03-29T14:33:45.519Z,3.90
2019-03-29T14:36:16.816Z,3.60
2019-03-29T14:38:48.491Z,3.60
2019-03-29T14:41:19.447Z,3.40
2019-03-29T14:43:52.309Z,3.77
2019-03-29T14:46:23.478Z,3.43
2019-03-29T14:48:54.597Z,3.60
2019-03-29T14:51:25.856Z,3.60
2019-03-29T14:53:57.219Z,3.93
2019-03-29T14:56:28.931Z,3.90
2019-03-29T14:58:59.970Z,4.20
2019-03-29T15:01:30.959Z,4.20
2019-03-29T15:04:02.066Z,4.10
2019-03-29T15:06:33.244Z,3.47
2019-03-29T15:09:06.501Z,3.67
2019-03-29T15:11:37.575Z,4.83
2019-03-29T15:14:09.053Z,4.90
2019-03-29T15:16:40.024Z,3.53
2019-03-29T15:19:10.964Z,3.57
2019-03-29T15:21:41.924Z,3.27
2019-03-29T15:24:12.917Z,4.63
2019-03-29T15:26:44.436Z,4.20
2019-03-29T15:29:15.848Z,4.10
2019-03-29T15:31:46.884Z,4.07
2019-03-29T15:34:20.586Z,3.97
2019-03-29T15:36:53.133Z,4.20
2019-03-29T15:39:24.145Z,3.93
2019-03-29T15:41:55.255Z,3.73
2019-03-29T15:44:27.790Z,3.93
2019-03-29T15:46:58.825Z,3.87
2019-03-29T15:49:29.877Z,3.93
2019-03-29T15:52:00.779Z,3.43
2019-03-29T15:54:32.487Z,4.00
2019-03-29T15:57:04.018Z,4.20
2019-03-29T15:59:35.048Z,4.03
2019-03-29T16:02:05.956Z,3.80
2019-03-29T16:04:37.015Z,3.70
2019-03-29T16:07:08.099Z,3.67
2019-03-29T16:09:39.442Z,4.13
2019-03-29T16:12:10.954Z,3.97
2019-03-29T16:14:42.057Z,3.40
2019-03-29T16:17:14.836Z,3.50
2019-03-29T16:19:46.836Z,3.60
2019-03-29T16:22:17.993Z,3.30
2019-03-29T16:24:49.061Z,3.10
2019-03-29T16:27:20.113Z,3.50
2019-03-29T16:29:51.124Z,4.43
2019-03-29T16:32:22.360Z,3.90
2019-03-29T16:34:53.354Z,3.80
2019-03-29T16:37:24.682Z,3.40
2019-03-29T16:39:55.627Z,4.27
2019-03-29T16:42:26.575Z,4.20
2019-03-29T16:44:57.793Z,3.40
2019-03-29T16:47:29.534Z,3.57
2019-03-29T16:50:01.468Z,3.27
2019-03-29T16:52:32.563Z,2.80
2019-03-29T16:55:14.311Z,3.30
2019-03-29T16:57:45.753Z,3.40
2019-03-29T17:00:20.002Z,3.10
2019-03-29T17:02:51.038Z,2.90
2019-03-29T17:05:22.184Z,2.50
2019-03-29T17:07:53.432Z,3.20
2019-03-29T17:10:24.756Z,3.23
2019-03-29T17:12:55.767Z,3.37
2019-03-29T17:15:26.907Z,3.07
2019-03-29T17:17:57.922Z,2.73
2019-03-29T17:20:29.150Z,3.00
2019-03-29T17:23:01.897Z,2.70
2019-03-29T17:25:33.026Z,3.00
2019-03-29T17:28:04.122Z,2.97
2019-03-29T17:30:38.242Z,2.73
2019-03-29T17:33:09.196Z,2.77
2019-03-29T17:35:40.166Z,2.33
2019-03-29T17:41:03.142Z,2.40
2019-03-29T17:43:34.688Z,3.20
2019-03-29T17:46:16.143Z,2.97
2019-03-29T17:48:39.551Z,3.30
2019-03-29T17:51:10.572Z,3.00
2019-03-29T17:53:41.701Z,3.20
2019-03-29T17:56:12.690Z,3.57
2019-03-29T17:58:43.737Z,3.23
2019-03-29T18:01:14.679Z,4.60
2019-03-29T18:03:45.652Z,4.40
2019-03-29T18:06:16.730Z,4.03
2019-03-29T18:08:47.682Z,4.57
2019-03-29T18:11:18.801Z,4.03
2019-03-29T18:13:50.038Z,3.80
2019-03-29T18:16:30.651Z,4.17
2019-03-29T18:18:53.904Z,3.30
2019-03-29T18:21:25.035Z,3.03
2019-03-29T18:23:56.131Z,2.80
2019-03-29T18:26:27.100Z,3.13
2019-03-29T18:28:58.260Z,3.60
2019-03-29T18:31:29.251Z,3.30
2019-03-29T18:34:00.893Z,3.40
2019-03-29T18:36:32.301Z,3.80
2019-03-29T18:39:04.530Z,3.33
2019-03-29T18:41:35.609Z,3.50
2019-03-29T18:44:06.613Z,3.77
2019-03-29T18:46:44.490Z,3.40
2019-03-29T18:49:10.585Z,3.17
2019-03-29T18:51:41.642Z,3.53
2019-03-29T18:54:12.623Z,6.70
2019-03-29T18:56:43.578Z,4.10
2019-03-29T18:59:14.612Z,3.30
2019-03-29T19:01:45.766Z,3.50
2019-03-29T19:04:16.764Z,3.20
2019-03-29T19:06:48.229Z,3.13
2019-03-29T19:09:19.412Z,3.33
2019-03-29T19:11:50.571Z,3.47
2019-03-29T19:14:21.629Z,3.60
2019-03-29T19:16:58.836Z,4.17
2019-03-29T19:19:25.165Z,4.03
2019-03-29T19:21:56.272Z,3.43
2019-03-29T19:24:28.287Z,3.90
2019-03-29T19:26:59.303Z,3.63
2019-03-29T19:29:30.224Z,4.40
2019-03-29T19:32:01.216Z,3.60
2019-03-29T19:34:32.175Z,4.33
2019-03-29T19:37:03.304Z,4.53
2019-03-29T19:39:34.339Z,3.90
2019-03-29T19:42:05.376Z,4.10
2019-03-29T19:44:36.357Z,4.00
2019-03-29T19:47:13.234Z,4.20
2019-03-29T19:49:40.030Z,3.90
2019-03-29T19:52:11.081Z,3.73
2019-03-29T19:54:42.199Z,4.23
2019-03-29T19:57:13.391Z,6.20
2019-03-29T19:59:47.930Z,5.83
2019-03-29T20:02:17.339Z,6.20
2019-03-29T20:04:48.413Z,5.70
2019-03-29T20:07:20.440Z,6.00
2019-03-29T20:09:51.691Z,4.93
2019-03-29T20:12:25.190Z,5.57
2019-03-29T20:14:55.280Z,5.67
2019-03-29T20:17:27.597Z,5.17
2019-03-29T20:19:58.948Z,5.90
2019-03-29T20:22:29.871Z,4.70
2019-03-29T20:25:01.061Z,5.77
2019-03-29T20:27:32.215Z,5.83
2019-03-29T20:30:12.223Z,5.50
2019-03-29T20:32:43.154Z,6.13
2019-03-29T20:35:14.400Z,6.57
2019-03-29T20:37:45.508Z,6.53
2019-03-29T20:40:16.544Z,6.47
2019-03-29T20:42:47.662Z,6.97
2019-03-29T20:45:18.827Z,6.20
2019-03-29T20:47:51.991Z,7.10
2019-03-29T20:50:23.114Z,6.97
2019-03-29T20:52:54.254Z,7.73
2019-03-29T20:55:25.705Z,8.27
2019-03-29T20:57:56.903Z,8.33
2019-03-29T21:00:27.870Z,7.23
2019-03-29T21:02:59.241Z,7.17
2019-03-29T21:05:30.318Z,7.30
2019-03-29T21:08:05.457Z,6.97
2019-03-29T21:10:36.424Z,7.00
2019-03-29T21:13:09.569Z,7.10
2019-03-29T21:15:42.442Z,6.70
2019-03-29T21:18:17.310Z,6.93
2019-03-29T21:20:47.544Z,7.90
2019-03-29T21:23:18.473Z,7.70
2019-03-29T21:25:49.440Z,6.80
2019-03-29T21:28:20.341Z,7.60
2019-03-29T21:30:51.299Z,7.43
2019-03-29T21:33:22.237Z,7.13
2019-03-29T21:35:53.313Z,7.30
2019-03-29T21:38:25.316Z,7.00
2019-03-29T21:40:56.390Z,6.93
2019-03-29T21:43:27.346Z,7.73
2019-03-29T21:45:58.444Z,7.33
2019-03-29T21:48:29.623Z,6.87
2019-03-29T21:51:00.606Z,6.67
2019-03-29T21:53:31.633Z,6.97
2019-03-29T21:56:03.914Z,7.20
2019-03-29T21:58:36.681Z,7.13
2019-03-29T22:01:08.444Z,6.43
2019-03-29T22:03:39.462Z,7.37
2019-03-29T22:06:10.526Z,6.37
2019-03-29T22:08:41.500Z,16.10
2019-03-29T22:11:12.463Z,6.40
2019-03-29T22:13:43.457Z,6.73
2019-03-29T22:16:14.597Z,6.93
2019-03-29T22:18:45.693Z,7.03
2019-03-29T22:21:16.713Z,7.33
2019-03-29T22:23:47.709Z,7.00
2019-03-29T22:26:18.751Z,7.57
2019-03-29T22:28:51.367Z,6.27
2019-03-29T22:31:23.756Z,6.63
2019-03-29T22:33:57.033Z,7.07
2019-03-29T22:36:28.082Z,6.67
2019-03-29T22:38:58.945Z,6.43
2019-03-29T22:41:29.911Z,6.93
2019-03-29T22:44:00.910Z,7.20
2019-03-29T22:46:31.865Z,7.00
2019-03-29T22:49:02.771Z,7.40
2019-03-29T22:51:33.783Z,7.80
2019-03-29T22:54:04.815Z,6.97
2019-03-29T22:56:35.853Z,7.67
2019-03-29T22:59:06.889Z,7.77
2019-03-29T23:01:40.917Z,7.27
2019-03-29T23:04:11.953Z,8.10
2019-03-29T23:06:43.005Z,7.27
2019-03-29T23:09:14.036Z,7.80
2019-03-29T23:11:44.916Z,7.20
2019-03-29T23:14:15.803Z,7.63
2019-03-29T23:16:46.757Z,7.27
2019-03-29T23:19:17.786Z,8.37
2019-03-29T23:21:48.671Z,7.47
2019-03-29T23:24:19.567Z,7.77
2019-03-29T23:26:50.552Z,7.77
2019-03-29T23:29:21.649Z,7.80
2019-03-29T23:31:52.627Z,7.97
2019-03-29T23:34:23.729Z,8.63
2019-03-29T23:36:54.727Z,7.53
2019-03-29T23:39:25.816Z,7.77
2019-03-29T23:41:56.864Z,8.17
2019-03-29T23:44:27.854Z,7.87
2019-03-29T23:46:58.980Z,8.23
2019-03-29T23:49:30.119Z,8.73
2019-03-29T23:52:01.125Z,8.03
2019-03-29T23:54:32.068Z,8.27
2019-03-29T23:57:03.137Z,8.80
2019-03-29T23:59:34.039Z,8.00
